Douglas, Bisbee-Douglas International Airport (KDUG)

NameBisbee-Douglas International Airport
CityDouglas
CountryUnited States
ICAOKDUG
IATADUG
Altitude1266 m
CoordinatesGoogle Map
Live Air TrafficLiveATC.net
METARKDUG 190556Z AUTO 11004KT 10SM CLR 11/M07 A2998 RMK AO2 SLP107 T01111072 10267 20111 50010
2019-05-19 05:56:00 Wind: East (110°) 2.06 m/s - Visibility: 16093.4 m - Temperature: 11 °C - Dew point: -7 °C - Humidity: 27.9% - Pressure: 1015.24 hPa
Statistics

The table below shows the detailed information of all flights to/from Douglas, Bisbee-Douglas International Airport (KDUG).